Asheboro, North Carolina
Current Conditions -  °F | °C
As of 10:15 AM on Friday 31 Oct 2014 (Local Time) from KHBI Reporting Station
Overcast Overcast  
Wind Chill:   Ceiling: 2700
Heat Index: 10°   Visibility: 10mi
Dew Point:   Wind: 7mph
Humidity: 66%   Direction: 20°NNE
Pressure: 29.99"   Gusts: NA
Location:  35.71°N, 79.81°W
Report Text: KHBI 311415Z AUTO 02006KT 10SM OVC027 10/04 A2999 RMK AO2 T00970037
Loading
Personal Weather Stations






























Interactive Weather Map
Tropical Storm Tracking
New forecast layout! Learn more

10-Day Weather Forecast

Advertisements
Track Severe Weather on mobile